Time;durP1;ratioP1;P1;durP2;ratioP2;P2;SDS_P1;SDS_P2;PMS_P1;PMS_P2;Temp;Humidity;BMP_temperature;BMP_pressure;BME280_temperature;BME280_humidity;BME280_pressure;Samples;Min_cycle;Max_cycle;Signal;HPM_P1;HPM_P2
2022/03/15 00:01:34;;;;;;;21.53;11.57;;;6.10;61.50;;;;;;5025517;28;20208;-78
2022/03/15 00:04:03;;;;;;;23.33;10.70;;;6.10;61.60;;;;;;5024816;28;21032;-79
2022/03/15 00:06:34;;;;;;;21.33;11.53;;;6.10;61.50;;;;;;5025345;28;20230;-79
2022/03/15 00:09:02;;;;;;;22.33;11.63;;;6.00;61.50;;;;;;5025343;28;20199;-78
2022/03/15 00:11:34;;;;;;;26.17;12.13;;;6.00;61.40;;;;;;5023978;28;20255;-79
2022/03/15 00:14:03;;;;;;;27.20;12.17;;;6.10;61.50;;;;;;5024096;28;20202;-79
2022/03/15 00:16:31;;;;;;;22.90;12.00;;;6.10;61.50;;;;;;5025123;28;20202;-78
2022/03/15 00:19:00;;;;;;;24.27;12.50;;;6.10;61.50;;;;;;5025420;28;20310;-78
2022/03/15 00:21:28;;;;;;;25.00;12.17;;;6.00;61.50;;;;;;5023517;28;21621;-78
2022/03/15 00:23:59;;;;;;;19.53;11.73;;;6.00;61.50;;;;;;5025057;28;20854;-78
2022/03/15 00:26:28;;;;;;;23.67;12.13;;;6.00;61.70;;;;;;5025014;28;20628;-78
2022/03/15 00:28:56;;;;;;;20.77;10.50;;;6.00;61.70;;;;;;5024012;28;20715;-77
2022/03/15 00:31:24;;;;;;;24.30;11.93;;;6.00;61.80;;;;;;5022353;28;20200;-77
2022/03/15 00:33:53;;;;;;;21.17;11.70;;;6.00;61.80;;;;;;5024443;28;21327;-77
2022/03/15 00:36:21;;;;;;;21.80;11.10;;;6.00;62.70;;;;;;5021680;28;20202;-78
2022/03/15 00:38:50;;;;;;;22.50;13.13;;;5.90;61.90;;;;;;5022474;28;20214;-78
2022/03/15 00:41:20;;;;;;;26.07;11.57;;;5.90;62.10;;;;;;5024390;28;20574;-78
2022/03/15 00:43:48;;;;;;;20.30;11.03;;;5.90;62.10;;;;;;5025523;28;20767;-78
2022/03/15 00:46:16;;;;;;;19.87;10.80;;;5.90;62.20;;;;;;5024147;28;20687;-77
2022/03/15 00:48:45;;;;;;;28.10;11.50;;;5.80;62.40;;;;;;5023310;28;20218;-78
2022/03/15 00:51:13;;;;;;;20.90;11.00;;;5.80;62.30;;;;;;5026007;28;20923;-78
2022/03/15 00:53:41;;;;;;;21.67;11.23;;;5.80;62.40;;;;;;5024752;28;20203;-78
2022/03/15 00:56:10;;;;;;;18.57;10.47;;;5.80;62.40;;;;;;5022752;28;20203;-78
2022/03/15 00:58:39;;;;;;;21.00;10.60;;;5.70;62.50;;;;;;5023386;28;21052;-78
2022/03/15 01:01:08;;;;;;;20.83;11.07;;;5.70;62.50;;;;;;5022924;28;20233;-78
2022/03/15 01:03:36;;;;;;;21.87;10.83;;;5.70;62.50;;;;;;5024294;28;20231;-78
2022/03/15 01:06:05;;;;;;;23.53;12.13;;;5.70;62.50;;;;;;5023635;28;20203;-79
2022/03/15 01:08:34;;;;;;;23.43;12.17;;;5.60;62.70;;;;;;5025106;28;20767;-77
2022/03/15 01:11:05;;;;;;;23.17;12.03;;;5.60;62.70;;;;;;5022832;28;20194;-78
2022/03/15 01:13:34;;;;;;;25.07;12.57;;;5.60;62.80;;;;;;5024678;28;20226;-78
2022/03/15 01:16:03;;;;;;;21.00;12.17;;;5.50;62.80;;;;;;5022069;28;20211;-78
2022/03/15 01:18:34;;;;;;;20.90;11.50;;;5.40;63.00;;;;;;5021618;28;20222;-78
2022/03/15 01:21:02;;;;;;;21.60;11.53;;;5.40;63.20;;;;;;5023108;28;20204;-78
2022/03/15 01:23:31;;;;;;;22.07;12.30;;;5.40;63.20;;;;;;5023584;28;20217;-79
2022/03/15 01:26:00;;;;;;;23.47;12.03;;;5.40;63.30;;;;;;5022315;28;20221;-79
2022/03/15 01:28:29;;;;;;;23.80;12.37;;;5.30;63.50;;;;;;5024918;28;20209;-77
2022/03/15 01:30:57;;;;;;;19.90;12.60;;;5.30;63.80;;;;;;5023404;28;20225;-78
2022/03/15 01:33:28;;;;;;;23.47;11.53;;;5.30;63.70;;;;;;5023069;28;20295;-78
2022/03/15 01:35:56;;;;;;;24.30;12.30;;;5.30;63.60;;;;;;5022767;28;20199;-78
2022/03/15 01:38:24;;;;;;;20.27;10.70;;;5.30;63.70;;;;;;5023554;28;20212;-78
2022/03/15 01:40:53;;;;;;;21.67;11.87;;;5.30;63.70;;;;;;5024971;28;20197;-78
2022/03/15 01:43:21;;;;;;;21.53;11.20;;;5.30;63.60;;;;;;5024093;28;20193;-79
2022/03/15 01:45:50;;;;;;;24.17;12.30;;;5.30;63.60;;;;;;5023320;28;20290;-78
2022/03/15 01:48:18;;;;;;;23.20;12.53;;;5.30;63.70;;;;;;5023780;28;20700;-78
2022/03/15 01:50:48;;;;;;;25.23;12.27;;;5.30;63.60;;;;;;5024067;28;20579;-78
2022/03/15 01:53:17;;;;;;;21.80;11.27;;;5.30;63.60;;;;;;5024031;28;20205;-79
2022/03/15 01:55:45;;;;;;;19.47;10.20;;;5.30;63.70;;;;;;5022256;28;20195;-78
2022/03/15 01:58:13;;;;;;;21.70;11.87;;;5.30;63.70;;;;;;5023438;28;20253;-79
2022/03/15 02:00:42;;;;;;;21.80;11.23;;;5.30;63.60;;;;;;5022217;28;20246;-79
2022/03/15 02:03:10;;;;;;;21.27;11.73;;;5.30;63.60;;;;;;5021200;28;20241;-78
2022/03/15 02:05:39;;;;;;;18.87;11.23;;;5.30;63.60;;;;;;5022336;28;20208;-78
2022/03/15 02:08:13;;;;;;;20.93;10.97;;;5.30;63.50;;;;;;5023169;28;20198;-78
2022/03/15 02:10:42;;;;;;;19.50;11.63;;;5.30;63.40;;;;;;5024465;28;20770;-79
2022/03/15 02:13:11;;;;;;;18.90;10.97;;;5.40;63.50;;;;;;5024280;28;20761;-79
2022/03/15 02:15:39;;;;;;;21.17;10.57;;;5.30;63.50;;;;;;5022225;28;20814;-79
2022/03/15 02:18:08;;;;;;;23.57;10.90;;;5.40;63.50;;;;;;5024227;28;20225;-78
2022/03/15 02:20:37;;;;;;;20.70;11.37;;;5.40;63.40;;;;;;5021570;28;20202;-78
2022/03/15 02:23:05;;;;;;;22.00;11.90;;;5.40;63.30;;;;;;5022361;28;20296;-78
2022/03/15 02:25:34;;;;;;;19.67;10.47;;;5.40;63.30;;;;;;5023155;28;20618;-79
2022/03/15 02:28:02;;;;;;;20.03;11.47;;;5.40;63.20;;;;;;5022396;28;20209;-78
2022/03/15 02:30:31;;;;;;;22.80;11.50;;;5.40;63.20;;;;;;5020968;28;20572;-79
2022/03/15 02:32:59;;;;;;;19.30;11.37;;;5.40;63.20;;;;;;5022261;28;20208;-79
2022/03/15 02:35:27;;;;;;;18.50;10.30;;;5.40;63.20;;;;;;5022560;28;20211;-78
2022/03/15 02:37:57;;;;;;;22.63;10.87;;;5.40;63.20;;;;;;5022634;28;20680;-78
2022/03/15 02:40:26;;;;;;;20.87;11.40;;;5.40;63.20;;;;;;5023582;28;20859;-78
2022/03/15 02:42:54;;;;;;;22.63;10.97;;;5.40;63.60;;;;;;5025793;28;20257;-79
2022/03/15 02:45:26;;;;;;;26.33;11.30;;;5.40;63.30;;;;;;5026694;28;20675;-78
2022/03/15 02:47:56;;;;;;;21.63;11.50;;;5.40;63.50;;;;;;5027400;28;20281;-78
2022/03/15 02:50:25;;;;;;;19.67;11.20;;;5.30;63.50;;;;;;5025655;28;20540;-79
2022/03/15 02:52:54;;;;;;;25.43;11.77;;;5.30;63.60;;;;;;5025184;28;20831;-80
2022/03/15 02:55:24;;;;;;;23.37;11.23;;;5.20;63.60;;;;;;5025125;28;20213;-79
2022/03/15 02:57:52;;;;;;;19.93;11.53;;;5.20;63.60;;;;;;5026694;28;20213;-78
2022/03/15 03:00:21;;;;;;;20.17;10.17;;;5.20;63.60;;;;;;5026608;28;20233;-78
2022/03/15 03:02:49;;;;;;;20.50;10.43;;;5.20;63.60;;;;;;5027081;28;20220;-78
2022/03/15 03:05:18;;;;;;;26.70;11.43;;;5.20;63.60;;;;;;5024929;28;20233;-79
2022/03/15 03:07:46;;;;;;;20.87;12.23;;;5.20;63.60;;;;;;5025596;28;20254;-79
2022/03/15 03:10:16;;;;;;;22.50;11.57;;;5.20;63.60;;;;;;5024548;28;20206;-79
2022/03/15 03:12:49;;;;;;;21.00;10.30;;;5.20;63.60;;;;;;5025724;28;20659;-78
2022/03/15 03:15:22;;;;;;;19.23;10.97;;;5.20;63.40;;;;;;5026841;28;20222;-77
2022/03/15 03:17:50;;;;;;;21.00;11.13;;;5.20;63.30;;;;;;5026584;28;20206;-78
2022/03/15 03:20:19;;;;;;;19.47;11.23;;;5.30;63.30;;;;;;5026025;28;20229;-78
2022/03/15 03:22:48;;;;;;;20.43;10.73;;;5.30;63.20;;;;;;5026779;28;20214;-78
2022/03/15 03:25:16;;;;;;;20.20;11.40;;;5.30;63.20;;;;;;5024217;28;20210;-79
2022/03/15 03:27:47;;;;;;;22.07;12.10;;;5.30;63.00;;;;;;5026861;28;20208;-78
2022/03/15 03:30:16;;;;;;;20.80;11.43;;;5.30;63.20;;;;;;5023871;28;20193;-79
2022/03/15 03:32:44;;;;;;;19.57;10.50;;;5.30;63.10;;;;;;5026038;28;20679;-78
2022/03/15 03:35:12;;;;;;;17.30;10.50;;;5.30;63.00;;;;;;5024753;28;20203;-78
2022/03/15 03:37:40;;;;;;;25.70;11.83;;;5.40;63.20;;;;;;5024934;28;20228;-78
2022/03/15 03:40:10;;;;;;;23.30;11.10;;;5.40;63.00;;;;;;5025158;28;20887;-78
2022/03/15 03:42:38;;;;;;;22.23;12.07;;;5.40;63.00;;;;;;5027160;28;20199;-78
2022/03/15 03:45:09;;;;;;;24.87;12.03;;;5.30;63.00;;;;;;5024934;28;20210;-77
2022/03/15 03:47:37;;;;;;;26.47;12.97;;;5.30;62.90;;;;;;5026428;28;20204;-78
2022/03/15 03:50:09;;;;;;;26.00;11.80;;;5.40;63.10;;;;;;5026130;28;20199;-78
2022/03/15 03:52:37;;;;;;;26.97;12.27;;;5.40;63.10;;;;;;5024740;28;20212;-78
2022/03/15 03:55:07;;;;;;;23.73;12.17;;;5.30;63.00;;;;;;5024677;28;20286;-78
2022/03/15 03:57:35;;;;;;;23.30;12.50;;;5.30;63.10;;;;;;5025984;28;20201;-78
2022/03/15 04:00:05;;;;;;;29.63;12.27;;;5.30;63.10;;;;;;5025329;28;20222;-77
2022/03/15 04:02:35;;;;;;;29.07;13.10;;;5.30;63.00;;;;;;5024885;28;20241;-78
2022/03/15 04:05:04;;;;;;;28.97;12.10;;;5.30;63.10;;;;;;5026058;28;20201;-78
2022/03/15 04:07:34;;;;;;;28.87;12.60;;;5.30;63.10;;;;;;5023526;28;20209;-78
2022/03/15 04:10:06;;;;;;;24.53;12.70;;;5.30;63.10;;;;;;5027324;28;20197;-77
2022/03/15 04:12:35;;;;;;;26.43;12.33;;;5.30;63.20;;;;;;5025100;28;20200;-77
2022/03/15 04:15:04;;;;;;;22.90;12.53;;;5.30;63.20;;;;;;5024410;28;20736;-77
2022/03/15 04:17:34;;;;;;;30.53;13.50;;;5.30;63.20;;;;;;5025420;28;20206;-76
2022/03/15 04:20:03;;;;;;;21.93;11.77;;;5.30;63.20;;;;;;5025733;28;20253;-77
2022/03/15 04:22:32;;;;;;;34.47;13.60;;;5.20;63.20;;;;;;5025049;28;20197;-79
2022/03/15 04:25:00;;;;;;;25.90;13.03;;;5.30;63.30;;;;;;5025625;28;20204;-77
2022/03/15 04:27:28;;;;;;;26.50;12.53;;;5.30;63.20;;;;;;5023692;28;20368;-77
2022/03/15 04:29:57;;;;;;;31.43;12.10;;;5.30;63.20;;;;;;5023764;28;20192;-77
2022/03/15 04:32:25;;;;;;;29.40;13.47;;;5.30;63.10;;;;;;5026150;28;20211;-78
2022/03/15 04:34:55;;;;;;;33.20;12.47;;;5.30;63.20;;;;;;5026510;28;20209;-77
2022/03/15 04:37:24;;;;;;;39.17;13.53;;;5.30;63.30;;;;;;5025165;28;20205;-77
2022/03/15 04:39:53;;;;;;;24.20;12.90;;;5.30;63.30;;;;;;5026558;28;20218;-76
2022/03/15 04:42:22;;;;;;;39.07;14.00;;;5.30;63.40;;;;;;5024044;28;20259;-77
2022/03/15 04:44:50;;;;;;;29.43;12.73;;;5.30;63.40;;;;;;5025292;28;20203;-77
2022/03/15 04:47:19;;;;;;;28.90;13.37;;;5.30;63.30;;;;;;5024732;28;20631;-76
2022/03/15 04:49:47;;;;;;;37.43;13.30;;;5.30;63.40;;;;;;5032858;28;20191;-77
2022/03/15 04:52:17;;;;;;;34.17;13.57;;;5.30;63.40;;;;;;5032206;28;20203;-75
2022/03/15 04:54:46;;;;;;;34.00;14.57;;;5.30;63.50;;;;;;5029497;28;20210;-77
2022/03/15 04:57:14;;;;;;;26.30;13.63;;;5.30;63.60;;;;;;5027636;28;20200;-76
2022/03/15 04:59:42;;;;;;;32.67;13.83;;;5.30;63.60;;;;;;5027434;28;20222;-76
2022/03/15 05:02:10;;;;;;;27.10;13.70;;;5.30;63.60;;;;;;5024618;28;20203;-76
2022/03/15 05:04:39;;;;;;;30.33;12.50;;;5.40;63.80;;;;;;5023493;28;20287;-77
2022/03/15 05:07:07;;;;;;;27.60;13.33;;;5.40;63.80;;;;;;5024823;28;20210;-77
2022/03/15 05:11:06;;;;;;;25.00;12.40;;;5.40;63.80;;;;;;5022960;28;20657;-76
2022/03/15 05:12:27;;;;;;;24.03;12.10;;;5.40;63.80;;;;;;5023409;28;20290;-76
2022/03/15 05:14:55;;;;;;;31.90;12.77;;;5.40;63.80;;;;;;5024717;28;20198;-76
2022/03/15 05:17:24;;;;;;;31.70;12.83;;;5.40;63.90;;;;;;5023816;28;20788;-76
2022/03/15 05:19:52;;;;;;;36.03;14.13;;;5.50;64.00;;;;;;5022709;28;20272;-77
2022/03/15 05:22:21;;;;;;;26.57;13.27;;;5.50;63.80;;;;;;5023844;28;20206;-77
2022/03/15 05:24:50;;;;;;;27.70;12.23;;;5.50;63.70;;;;;;5023976;28;20715;-77
2022/03/15 05:27:19;;;;;;;26.60;12.67;;;5.60;63.70;;;;;;5024775;28;20213;-77
2022/03/15 05:29:47;;;;;;;28.87;13.00;;;5.60;63.50;;;;;;5024630;28;20726;-76
2022/03/15 05:32:15;;;;;;;32.30;13.43;;;5.70;63.40;;;;;;5025546;28;20661;-77
2022/03/15 05:34:43;;;;;;;28.90;14.33;;;5.70;63.30;;;;;;5024634;28;20762;-77
2022/03/15 05:37:12;;;;;;;29.53;13.90;;;5.70;63.20;;;;;;5023695;28;20202;-77
2022/03/15 05:39:40;;;;;;;32.00;14.60;;;5.80;63.20;;;;;;5024524;28;20195;-77
2022/03/15 05:42:13;;;;;;;37.63;16.00;;;5.90;63.10;;;;;;5023977;28;20817;-77
2022/03/15 05:44:46;;;;;;;35.80;15.53;;;5.90;63.10;;;;;;5024860;28;20190;-77
2022/03/15 05:47:14;;;;;;;28.33;15.87;;;6.00;62.90;;;;;;5023841;28;20225;-77
2022/03/15 05:49:43;;;;;;;30.10;16.13;;;6.00;62.80;;;;;;5023712;28;20206;-78
2022/03/15 05:52:11;;;;;;;34.17;16.87;;;6.10;62.70;;;;;;5023894;28;20200;-78
2022/03/15 05:54:39;;;;;;;31.87;16.80;;;6.10;62.60;;;;;;5023691;28;20208;-78
2022/03/15 05:57:09;;;;;;;35.53;17.47;;;6.20;62.60;;;;;;5022797;28;20593;-78
2022/03/15 05:59:37;;;;;;;31.97;16.80;;;6.20;62.50;;;;;;5024706;28;20613;-77
2022/03/15 06:02:06;;;;;;;42.80;18.37;;;6.30;62.50;;;;;;5022226;28;20227;-77
2022/03/15 06:04:35;;;;;;;33.90;17.03;;;6.40;62.50;;;;;;5044652;28;20236;-78
2022/03/15 06:07:03;;;;;;;36.93;18.83;;;6.40;62.60;;;;;;5042813;28;20194;-77
2022/03/15 06:09:35;;;;;;;34.00;17.17;;;6.50;62.30;;;;;;5046670;28;20210;-77
2022/03/15 06:12:04;;;;;;;31.77;16.17;;;6.50;62.20;;;;;;5042612;28;20194;-78
2022/03/15 06:14:34;;;;;;;34.17;17.57;;;6.60;62.10;;;;;;5043092;28;20212;-78
2022/03/15 06:17:02;;;;;;;38.00;18.00;;;6.60;62.10;;;;;;5039770;28;20217;-79
2022/03/15 06:19:30;;;;;;;36.17;17.50;;;6.70;62.00;;;;;;5042519;28;20336;-79
2022/03/15 06:21:59;;;;;;;38.40;17.33;;;6.70;61.80;;;;;;5043434;28;22029;-78
2022/03/15 06:24:28;;;;;;;33.83;17.23;;;6.80;61.90;;;;;;5043317;28;20209;-77
2022/03/15 06:26:57;;;;;;;35.37;16.70;;;6.80;61.50;;;;;;5042927;28;20206;-76
2022/03/15 06:29:25;;;;;;;34.73;16.97;;;6.80;61.70;;;;;;5044568;28;20202;-78
2022/03/15 06:31:56;;;;;;;32.73;17.77;;;6.90;61.70;;;;;;5041686;28;20249;-78
2022/03/15 06:34:44;;;;;;;31.80;17.80;;;7.00;61.80;;;;;;5041694;28;20286;-78
2022/03/15 06:37:12;;;;;;;33.60;17.43;;;7.00;61.70;;;;;;5041667;28;20205;-80
2022/03/15 06:39:40;;;;;;;36.97;18.33;;;7.00;61.70;;;;;;5039577;28;21043;-78
2022/03/15 06:42:12;;;;;;;30.27;16.73;;;7.10;61.60;;;;;;5041340;28;20215;-79
2022/03/15 06:44:42;;;;;;;31.10;16.17;;;7.20;61.70;;;;;;5038728;28;20196;-79
2022/03/15 06:47:12;;;;;;;28.73;16.80;;;7.30;61.20;;;;;;5037781;28;20509;-79
2022/03/15 06:49:41;;;;;;;32.87;16.83;;;7.40;61.20;;;;;;5036238;28;20468;-78
2022/03/15 06:52:10;;;;;;;31.90;16.23;;;7.50;61.00;;;;;;5041917;28;20186;-78
2022/03/15 06:55:06;;;;;;;27.70;16.03;;;7.50;60.60;;;;;;5041171;28;20234;-79
2022/03/15 06:57:48;;;;;;;27.30;15.33;;;7.70;60.90;;;;;;5041696;28;20188;-79
2022/03/15 07:00:41;;;;;;;31.53;16.37;;;7.80;60.90;;;;;;5041004;28;20209;-80
2022/03/15 07:03:17;;;;;;;36.80;15.43;;;7.90;60.50;;;;;;5038683;28;20228;-80
2022/03/15 07:06:03;;;;;;;31.77;15.73;;;8.00;60.10;;;;;;5040509;28;20976;-79
2022/03/15 07:08:45;;;;;;;31.83;16.70;;;8.10;60.30;;;;;;5036498;28;20190;-80
2022/03/15 07:11:38;;;;;;;30.30;16.07;;;8.30;60.20;;;;;;5030498;28;20830;-77
2022/03/15 07:14:21;;;;;;;28.73;15.13;;;8.40;60.20;;;;;;5040130;28;20361;-78
2022/03/15 07:20:50;;;;;;;28.90;15.53;;;8.60;59.70;;;;;;5030551;28;20767;-78
2022/03/15 07:23:36;;;;;;;30.37;15.63;;;8.70;59.60;;;;;;5041660;28;20194;-78
2022/03/15 07:26:26;;;;;;;34.47;16.97;;;8.80;59.20;;;;;;5038922;28;20282;-77
2022/03/15 07:28:55;;;;;;;32.50;15.73;;;8.90;59.10;;;;;;5045698;28;20244;-77
2022/03/15 07:31:23;;;;;;;34.47;17.03;;;8.90;58.90;;;;;;5040890;28;20206;-79
2022/03/15 07:33:57;;;;;;;30.77;17.07;;;9.00;58.90;;;;;;5042798;28;20282;-80
2022/03/15 07:36:27;;;;;;;36.17;17.03;;;9.10;58.60;;;;;;5040427;28;20194;-79
2022/03/15 07:38:55;;;;;;;28.40;15.07;;;9.10;58.80;;;;;;5045696;28;20848;-80
2022/03/15 07:41:47;;;;;;;27.07;14.53;;;9.20;58.60;;;;;;5043279;28;20220;-81
2022/03/15 07:45:33;;;;;;;28.70;14.47;;;9.30;58.30;;;;;;5040707;28;20210;-79
2022/03/15 07:48:01;;;;;;;27.73;15.03;;;9.30;57.90;;;;;;4927541;28;20713;-78
2022/03/15 07:50:35;;;;;;;26.43;15.50;;;9.40;57.70;;;;;;4973768;28;20218;-78
2022/03/15 07:53:04;;;;;;;26.00;14.90;;;9.40;57.70;;;;;;5039806;28;20568;-78
2022/03/15 07:55:34;;;;;;;26.13;14.33;;;9.50;57.60;;;;;;5045011;28;20257;-78
2022/03/15 07:58:02;;;;;;;23.53;13.53;;;9.50;57.60;;;;;;5044614;28;20194;-78
2022/03/15 08:00:33;;;;;;;28.03;13.87;;;9.60;57.60;;;;;;5043634;28;20225;-77
2022/03/15 08:03:02;;;;;;;26.80;13.43;;;9.60;57.50;;;;;;5043247;28;20833;-79
2022/03/15 08:05:32;;;;;;;26.87;13.10;;;9.70;56.60;;;;;;5044973;28;20203;-80
2022/03/15 08:08:17;;;;;;;23.37;13.77;;;9.70;56.40;;;;;;5042071;28;20228;-78
2022/03/15 08:10:45;;;;;;;28.90;14.20;;;9.80;56.00;;;;;;5042498;28;20623;-80
2022/03/15 08:13:18;;;;;;;27.57;13.50;;;9.90;55.90;;;;;;5043722;28;20379;-78
2022/03/15 08:15:50;;;;;;;25.23;13.20;;;9.90;55.80;;;;;;5040740;28;20220;-78
2022/03/15 08:18:19;;;;;;;27.67;14.57;;;10.00;55.60;;;;;;5043452;28;20208;-78
2022/03/15 08:20:48;;;;;;;27.20;14.47;;;10.20;55.60;;;;;;5042256;28;20497;-79
2022/03/15 08:23:20;;;;;;;30.83;15.47;;;10.20;55.50;;;;;;5042176;28;20240;-79
2022/03/15 08:25:48;;;;;;;27.40;14.53;;;10.30;55.70;;;;;;5043557;28;20199;-77
2022/03/15 08:28:17;;;;;;;27.37;14.57;;;10.40;55.70;;;;;;5044529;28;20222;-82
2022/03/15 08:30:45;;;;;;;24.57;14.60;;;10.50;55.30;;;;;;5042315;28;20201;-82
2022/03/15 08:33:23;;;;;;;23.83;14.50;;;10.60;55.10;;;;;;5043183;28;20202;-79
2022/03/15 08:35:52;;;;;;;26.77;14.97;;;10.70;55.10;;;;;;5041194;28;20249;-79
2022/03/15 08:38:22;;;;;;;28.73;14.20;;;10.80;55.10;;;;;;5040060;28;20212;-79
2022/03/15 08:40:53;;;;;;;22.50;13.70;;;11.00;55.00;;;;;;5041168;28;20692;-80
2022/03/15 08:43:21;;;;;;;28.37;13.63;;;11.10;54.50;;;;;;5044199;28;20679;-82
2022/03/15 08:45:50;;;;;;;30.20;14.77;;;11.20;54.50;;;;;;5043462;28;20198;-78
2022/03/15 08:48:18;;;;;;;26.23;13.70;;;11.30;53.60;;;;;;5043294;28;20208;-79
2022/03/15 08:50:47;;;;;;;24.83;12.43;;;11.40;53.80;;;;;;5044447;28;20202;-81
2022/03/15 08:53:15;;;;;;;23.27;13.43;;;11.60;53.30;;;;;;5043544;28;20198;-79
2022/03/15 08:55:45;;;;;;;27.53;14.37;;;11.70;53.20;;;;;;5043636;28;20210;-80
2022/03/15 08:58:13;;;;;;;21.20;12.17;;;11.80;53.00;;;;;;5043629;28;20199;-78
2022/03/15 09:00:42;;;;;;;24.40;12.93;;;11.90;52.20;;;;;;5044859;28;20209;-79
2022/03/15 09:03:10;;;;;;;25.77;13.60;;;11.90;50.70;;;;;;5043461;28;20258;-79
2022/03/15 09:05:39;;;;;;;20.17;12.50;;;12.10;51.50;;;;;;5042381;28;20202;-78
2022/03/15 09:08:08;;;;;;;21.10;12.13;;;12.20;51.80;;;;;;5043185;28;20206;-79
2022/03/15 09:10:36;;;;;;;23.77;13.10;;;12.30;51.50;;;;;;5042553;28;20202;-79
2022/03/15 09:13:08;;;;;;;23.87;11.73;;;12.40;51.00;;;;;;5042245;28;20206;-78
2022/03/15 09:15:41;;;;;;;24.70;12.57;;;12.50;50.00;;;;;;5042804;28;20208;-79
2022/03/15 09:18:16;;;;;;;23.43;11.40;;;12.60;49.30;;;;;;5039297;28;20202;-79
2022/03/15 09:20:44;;;;;;;22.47;12.07;;;12.70;49.90;;;;;;5039841;28;20257;-80
2022/03/15 09:23:13;;;;;;;23.13;11.87;;;12.80;49.80;;;;;;5043178;28;20226;-79
2022/03/15 09:25:41;;;;;;;26.30;12.50;;;12.90;48.20;;;;;;5042327;28;20202;-78
2022/03/15 09:28:17;;;;;;;24.25;12.30;;;12.90;48.40;;;;;;5040612;28;20449;-78
2022/03/15 09:30:46;;;;;;;20.27;10.77;;;13.00;47.80;;;;;;5040105;28;20194;-79
2022/03/15 09:33:19;;;;;;;23.17;11.67;;;13.10;48.10;;;;;;5042618;28;20263;-77
2022/03/15 09:35:48;;;;;;;22.77;11.57;;;13.30;48.00;;;;;;5041359;28;20195;-78
2022/03/15 09:38:24;;;;;;;21.57;11.93;;;13.40;47.30;;;;;;5041540;28;20203;-78
2022/03/15 09:40:54;;;;;;;21.37;11.63;;;13.40;46.60;;;;;;5041184;28;20186;-78
2022/03/15 09:43:36;;;;;;;23.40;12.77;;;13.60;46.80;;;;;;5040129;28;20214;-78
2022/03/15 09:46:15;;;;;;;21.30;11.20;;;13.70;47.20;;;;;;5039348;28;20186;-79
2022/03/15 09:49:07;;;;;;;24.17;12.27;;;13.70;45.70;;;;;;5036584;28;20198;-77
2022/03/15 09:51:36;;;;;;;22.67;11.90;;;13.80;45.70;;;;;;5040093;28;20207;-79
2022/03/15 09:54:06;;;;;;;22.13;11.63;;;13.90;45.20;;;;;;5043763;28;20726;-79
2022/03/15 09:56:38;;;;;;;23.50;10.37;;;13.90;44.40;;;;;;5042041;28;20217;-78
2022/03/15 09:59:21;;;;;;;22.93;11.63;;;14.00;43.00;;;;;;5017765;28;20192;-77
2022/03/15 10:01:53;;;;;;;20.83;10.90;;;14.10;44.40;;;;;;5039108;28;20897;-78
2022/03/15 10:04:23;;;;;;;21.57;11.90;;;14.20;44.00;;;;;;5043612;28;20231;-76
2022/03/15 10:06:53;;;;;;;19.20;11.03;;;14.20;43.70;;;;;;5043282;28;20211;-78
2022/03/15 10:09:22;;;;;;;25.00;11.97;;;14.30;43.80;;;;;;5043397;28;20198;-79
2022/03/15 10:11:59;;;;;;;19.77;10.10;;;14.30;42.80;;;;;;5041486;28;20206;-77
2022/03/15 10:14:40;;;;;;;19.33;10.40;;;14.30;43.50;;;;;;5040919;28;20200;-78
2022/03/15 10:17:11;;;;;;;16.20;10.03;;;14.50;43.50;;;;;;5044625;28;20197;-77
2022/03/15 10:19:42;;;;;;;18.87;9.60;;;14.50;42.40;;;;;;5042523;28;20202;-78
2022/03/15 10:22:11;;;;;;;18.07;10.00;;;14.60;41.80;;;;;;5042306;28;20787;-78
2022/03/15 10:24:40;;;;;;;18.90;10.27;;;14.70;42.70;;;;;;5041383;28;20203;-78
2022/03/15 10:27:09;;;;;;;18.77;10.73;;;14.80;43.00;;;;;;5041659;28;20195;-78
2022/03/15 10:29:41;;;;;;;19.53;10.00;;;14.90;42.30;;;;;;5041730;28;20620;-79
2022/03/15 10:32:09;;;;;;;17.13;9.83;;;14.90;41.10;;;;;;5042201;28;20206;-79
2022/03/15 10:34:38;;;;;;;20.90;9.47;;;15.00;40.40;;;;;;5042226;28;20516;-79
2022/03/15 10:37:11;;;;;;;14.60;8.40;;;15.10;40.40;;;;;;5040084;28;20727;-79
2022/03/15 10:39:42;;;;;;;21.53;10.27;;;15.20;40.60;;;;;;5004813;28;20199;-80
2022/03/15 10:42:12;;;;;;;19.17;10.43;;;15.30;40.20;;;;;;5038839;28;20195;-80
2022/03/15 10:44:43;;;;;;;19.07;8.97;;;15.40;40.10;;;;;;5039482;28;20251;-81
2022/03/15 10:47:13;;;;;;;20.17;9.57;;;15.50;40.50;;;;;;5041604;28;20191;-79
2022/03/15 10:49:50;;;;;;;19.13;8.67;;;15.60;39.80;;;;;;5042396;28;20199;-79
2022/03/15 10:52:31;;;;;;;15.10;8.13;;;15.70;40.00;;;;;;5041678;28;20202;-80
2022/03/15 10:55:13;;;;;;;15.70;8.70;;;15.70;38.80;;;;;;5042908;28;20248;-79
2022/03/15 10:57:46;;;;;;;13.77;7.90;;;15.80;38.90;;;;;;5044368;28;20187;-78
2022/03/15 11:00:18;;;;;;;19.90;8.10;;;15.90;39.20;;;;;;5042451;28;20192;-82
2022/03/15 11:02:50;;;;;;;14.90;8.00;;;15.90;39.10;;;;;;5045340;28;20321;-81
2022/03/15 11:05:29;;;;;;;14.07;7.47;;;16.00;39.80;;;;;;5044840;28;20290;-79
2022/03/15 11:07:59;;;;;;;15.03;7.47;;;16.10;39.10;;;;;;5045644;28;20199;-81
2022/03/15 11:10:27;;;;;;;15.40;7.90;;;16.20;39.20;;;;;;5045514;28;20259;-80
2022/03/15 11:12:58;;;;;;;22.50;8.47;;;16.30;40.00;;;;;;5047447;28;20260;-79
2022/03/15 11:15:30;;;;;;;18.27;7.60;;;16.30;39.40;;;;;;5047396;28;20344;-78
2022/03/15 11:18:01;;;;;;;12.83;7.60;;;16.40;39.60;;;;;;5046213;28;21369;-79
2022/03/15 11:20:35;;;;;;;15.27;7.70;;;16.50;39.00;;;;;;5046153;28;20252;-79
2022/03/15 11:23:05;;;;;;;15.73;7.80;;;16.60;39.30;;;;;;5047060;28;20298;-79
2022/03/15 11:25:42;;;;;;;15.00;6.83;;;16.70;39.30;;;;;;5044729;28;20711;-78
2022/03/15 11:28:12;;;;;;;15.60;7.17;;;16.80;38.60;;;;;;5045144;28;20252;-77
2022/03/15 11:30:43;;;;;;;13.20;7.03;;;16.80;38.20;;;;;;5044232;28;20191;-79
2022/03/15 11:33:14;;;;;;;13.23;7.03;;;16.90;38.00;;;;;;5043375;28;20952;-79
2022/03/15 11:35:45;;;;;;;17.43;7.23;;;17.00;37.50;;;;;;5043063;28;20198;-76
2022/03/15 11:38:13;;;;;;;11.57;6.20;;;17.00;37.30;;;;;;5044277;28;20257;-78
2022/03/15 11:40:45;;;;;;;13.20;6.20;;;17.20;38.30;;;;;;5043169;28;20210;-77
2022/03/15 11:43:23;;;;;;;12.27;7.07;;;17.20;38.00;;;;;;5043575;28;20207;-77
2022/03/15 11:46:00;;;;;;;15.17;6.60;;;17.30;37.60;;;;;;5041891;28;20202;-77
2022/03/15 11:48:40;;;;;;;12.10;6.70;;;17.30;37.80;;;;;;5041391;28;20226;-77
2022/03/15 11:51:16;;;;;;;13.97;7.50;;;17.40;38.10;;;;;;5042755;28;20194;-78
2022/03/15 11:53:50;;;;;;;13.50;6.50;;;17.50;38.00;;;;;;5042988;28;20835;-78
2022/03/15 11:56:27;;;;;;;14.33;7.27;;;17.50;38.00;;;;;;5043134;28;20197;-78
2022/03/15 11:58:58;;;;;;;14.23;7.33;;;17.60;36.80;;;;;;5042520;28;20205;-77
2022/03/15 12:01:30;;;;;;;14.17;6.90;;;17.60;37.00;;;;;;5042420;28;20726;-78
2022/03/15 12:04:02;;;;;;;13.17;6.10;;;17.60;36.20;;;;;;5042596;28;20237;-78
2022/03/15 12:09:51;;;;;;;17.97;8.00;;;17.70;36.70;;;;;;5007250;28;20898;-81
2022/03/15 12:12:32;;;;;;;13.77;7.50;;;17.60;33.50;;;;;;5046849;28;20268;-80
2022/03/15 12:15:12;;;;;;;17.40;6.93;;;17.50;33.20;;;;;;5046084;28;20202;-79
2022/03/15 12:17:43;;;;;;;12.43;7.33;;;17.50;34.10;;;;;;5045958;28;20218;-79
2022/03/15 12:20:15;;;;;;;13.60;7.83;;;17.40;33.80;;;;;;5044224;28;20209;-79
2022/03/15 12:22:47;;;;;;;12.43;7.37;;;17.40;33.70;;;;;;5044184;28;20199;-82
2022/03/15 12:25:17;;;;;;;11.87;6.97;;;17.40;34.10;;;;;;5044213;28;20253;-77
2022/03/15 12:28:03;;;;;;;12.70;6.83;;;17.40;33.30;;;;;;5045990;28;20209;-79
2022/03/15 12:30:37;;;;;;;12.80;7.30;;;17.40;33.40;;;;;;5043165;28;20190;-78
2022/03/15 12:33:07;;;;;;;13.87;7.53;;;17.40;33.60;;;;;;5045529;28;20290;-78
2022/03/15 12:35:53;;;;;;;10.73;6.27;;;17.30;32.60;;;;;;5043923;28;20254;-79
2022/03/15 12:38:33;;;;;;;19.83;7.90;;;17.30;33.10;;;;;;5042583;28;20194;-79
2022/03/15 12:41:02;;;;;;;13.63;6.80;;;17.30;32.70;;;;;;5043560;28;20199;-80
2022/03/15 12:43:32;;;;;;;17.43;7.33;;;17.30;33.20;;;;;;5043433;28;20204;-80
2022/03/15 12:46:02;;;;;;;13.63;7.63;;;17.30;33.20;;;;;;5044575;28;20198;-78
2022/03/15 12:48:33;;;;;;;16.60;8.73;;;17.30;33.60;;;;;;5042131;28;20195;-80
2022/03/15 12:51:03;;;;;;;16.97;9.20;;;17.30;33.40;;;;;;5042281;28;20207;-79
2022/03/15 12:53:41;;;;;;;17.37;8.00;;;17.30;33.80;;;;;;5042662;28;20286;-80
2022/03/15 12:56:16;;;;;;;15.03;7.93;;;17.40;34.40;;;;;;5043262;28;20190;-79
2022/03/15 12:58:53;;;;;;;13.90;7.97;;;17.40;34.80;;;;;;5039030;28;20202;-79
2022/03/15 13:01:32;;;;;;;15.43;7.57;;;17.40;34.50;;;;;;5037895;28;20206;-78
2022/03/15 13:04:04;;;;;;;16.33;8.33;;;17.50;34.30;;;;;;5042489;28;20317;-78